sensor_id;sensor_type;location;lat;lon;timestamp;pressure;altitude;pressure_sealevel;temperature;humidity
52469;BME280;38381;53.688;10.776;2022-11-14T00:00:22;101960.06;;;7.28;90.59
52469;BME280;38381;53.688;10.776;2022-11-14T00:05:22;101962.19;;;7.38;90.34
52469;BME280;38381;53.688;10.776;2022-11-14T00:10:23;101962.72;;;7.29;90.63
52469;BME280;38381;53.688;10.776;2022-11-14T00:15:23;101954.88;;;7.26;91.26
52469;BME280;38381;53.688;10.776;2022-11-14T00:20:24;101950.00;;;7.34;91.06
52469;BME280;38381;53.688;10.776;2022-11-14T00:25:24;101939.41;;;7.49;90.35
52469;BME280;38381;53.688;10.776;2022-11-14T00:30:25;101929.25;;;7.31;90.58
52469;BME280;38381;53.688;10.776;2022-11-14T00:35:26;101928.78;;;7.41;90.57
52469;BME280;38381;53.688;10.776;2022-11-14T00:40:26;101916.41;;;7.32;90.59
52469;BME280;38381;53.688;10.776;2022-11-14T00:45:27;101922.28;;;7.28;90.79
52469;BME280;38381;53.688;10.776;2022-11-14T00:50:27;101912.00;;;7.30;90.49
52469;BME280;38381;53.688;10.776;2022-11-14T00:55:28;101916.88;;;7.22;90.71
52469;BME280;38381;53.688;10.776;2022-11-14T01:00:28;101910.25;;;7.29;89.98
52469;BME280;38381;53.688;10.776;2022-11-14T01:05:28;101914.34;;;7.23;90.25
52469;BME280;38381;53.688;10.776;2022-11-14T01:10:29;101906.41;;;7.41;89.53
52469;BME280;38381;53.688;10.776;2022-11-14T01:15:29;101901.19;;;7.17;90.42
52469;BME280;38381;53.688;10.776;2022-11-14T01:20:30;101889.06;;;7.37;89.92
52469;BME280;38381;53.688;10.776;2022-11-14T01:25:34;101891.72;;;7.16;90.74
52469;BME280;38381;53.688;10.776;2022-11-14T01:30:35;101873.81;;;7.21;90.38
52469;BME280;38381;53.688;10.776;2022-11-14T01:35:37;101872.94;;;7.20;90.14
52469;BME280;38381;53.688;10.776;2022-11-14T01:40:42;101868.66;;;7.21;89.56
52469;BME280;38381;53.688;10.776;2022-11-14T01:50:54;101850.84;;;7.04;90.30
52469;BME280;38381;53.688;10.776;2022-11-14T01:55:58;101840.75;;;7.11;89.78
52469;BME280;38381;53.688;10.776;2022-11-14T02:00:59;101831.91;;;7.04;89.53
52469;BME280;38381;53.688;10.776;2022-11-14T02:06:00;101819.94;;;7.06;90.10
52469;BME280;38381;53.688;10.776;2022-11-14T02:11:02;101823.16;;;7.00;90.35
52469;BME280;38381;53.688;10.776;2022-11-14T02:16:03;101812.28;;;7.08;90.24
52469;BME280;38381;53.688;10.776;2022-11-14T02:21:03;101799.78;;;7.18;89.62
52469;BME280;38381;53.688;10.776;2022-11-14T02:26:04;101800.03;;;7.02;90.40
52469;BME280;38381;53.688;10.776;2022-11-14T02:31:04;101782.97;;;7.05;89.66
52469;BME280;38381;53.688;10.776;2022-11-14T02:36:05;101795.75;;;7.02;89.63
52469;BME280;38381;53.688;10.776;2022-11-14T02:41:06;101779.09;;;6.94;90.26
52469;BME280;38381;53.688;10.776;2022-11-14T02:46:06;101773.84;;;6.91;89.97
52469;BME280;38381;53.688;10.776;2022-11-14T02:51:06;101767.28;;;6.99;90.33
52469;BME280;38381;53.688;10.776;2022-11-14T02:56:07;101765.03;;;6.86;90.97
52469;BME280;38381;53.688;10.776;2022-11-14T03:01:07;101760.19;;;6.71;90.83
52469;BME280;38381;53.688;10.776;2022-11-14T03:06:08;101745.34;;;6.88;90.13
52469;BME280;38381;53.688;10.776;2022-11-14T03:11:09;101733.88;;;6.80;91.04
52469;BME280;38381;53.688;10.776;2022-11-14T03:16:12;101718.94;;;6.71;90.89
52469;BME280;38381;53.688;10.776;2022-11-14T03:21:18;101710.66;;;6.80;91.05
52469;BME280;38381;53.688;10.776;2022-11-14T03:26:19;101706.34;;;7.03;89.94
52469;BME280;38381;53.688;10.776;2022-11-14T03:31:19;101694.38;;;6.81;90.53
52469;BME280;38381;53.688;10.776;2022-11-14T03:36:20;101702.50;;;6.92;90.44
52469;BME280;38381;53.688;10.776;2022-11-14T03:41:20;101688.16;;;6.76;90.55
52469;BME280;38381;53.688;10.776;2022-11-14T03:46:21;101691.13;;;6.62;91.03
52469;BME280;38381;53.688;10.776;2022-11-14T03:51:21;101686.47;;;6.76;90.73
52469;BME280;38381;53.688;10.776;2022-11-14T03:56:22;101693.25;;;6.74;90.94
52469;BME280;38381;53.688;10.776;2022-11-14T04:01:22;101674.03;;;6.64;90.27
52469;BME280;38381;53.688;10.776;2022-11-14T04:06:23;101670.03;;;6.73;90.63
52469;BME280;38381;53.688;10.776;2022-11-14T04:11:23;101667.59;;;6.77;90.12
52469;BME280;38381;53.688;10.776;2022-11-14T04:16:23;101682.22;;;6.54;90.72
52469;BME280;38381;53.688;10.776;2022-11-14T04:21:24;101661.00;;;6.61;89.84
52469;BME280;38381;53.688;10.776;2022-11-14T04:26:24;101664.81;;;6.49;90.55
52469;BME280;38381;53.688;10.776;2022-11-14T04:31:25;101660.22;;;6.40;91.23
52469;BME280;38381;53.688;10.776;2022-11-14T04:36:25;101660.22;;;6.40;91.38
52469;BME280;38381;53.688;10.776;2022-11-14T04:41:25;101655.63;;;6.55;90.75
52469;BME280;38381;53.688;10.776;2022-11-14T04:46:26;101660.09;;;6.37;90.68
52469;BME280;38381;53.688;10.776;2022-11-14T04:51:26;101659.75;;;6.28;91.15
52469;BME280;38381;53.688;10.776;2022-11-14T04:56:27;101644.84;;;6.20;91.56
52469;BME280;38381;53.688;10.776;2022-11-14T05:01:28;101638.78;;;6.18;92.26
52469;BME280;38381;53.688;10.776;2022-11-14T05:06:29;101631.75;;;6.37;91.79
52469;BME280;38381;53.688;10.776;2022-11-14T05:11:29;101634.84;;;6.28;91.17
52469;BME280;38381;53.688;10.776;2022-11-14T05:16:29;101637.81;;;6.39;90.29
52469;BME280;38381;53.688;10.776;2022-11-14T05:21:30;101632.16;;;6.25;91.08
52469;BME280;38381;53.688;10.776;2022-11-14T05:26:30;101613.84;;;6.17;91.67
52469;BME280;38381;53.688;10.776;2022-11-14T05:31:31;101612.94;;;6.17;92.22
52469;BME280;38381;53.688;10.776;2022-11-14T05:36:31;101606.63;;;6.31;90.67
52469;BME280;38381;53.688;10.776;2022-11-14T05:41:31;101611.78;;;6.31;90.72
52469;BME280;38381;53.688;10.776;2022-11-14T05:46:32;101601.19;;;6.23;90.72
52469;BME280;38381;53.688;10.776;2022-11-14T05:51:32;101599.34;;;6.19;91.02
52469;BME280;38381;53.688;10.776;2022-11-14T05:56:33;101592.66;;;6.02;91.95
52469;BME280;38381;53.688;10.776;2022-11-14T06:01:33;101599.19;;;6.16;91.70
52469;BME280;38381;53.688;10.776;2022-11-14T06:06:34;101602.78;;;6.20;91.46
52469;BME280;38381;53.688;10.776;2022-11-14T06:11:34;101597.97;;;6.07;91.92
52469;BME280;38381;53.688;10.776;2022-11-14T06:16:35;101602.47;;;6.12;91.24
52469;BME280;38381;53.688;10.776;2022-11-14T06:21:35;101597.63;;;5.97;91.51
52469;BME280;38381;53.688;10.776;2022-11-14T06:26:36;101605.88;;;5.90;92.88
52469;BME280;38381;53.688;10.776;2022-11-14T06:31:36;101603.00;;;6.03;91.72
52469;BME280;38381;53.688;10.776;2022-11-14T06:36:37;101612.38;;;6.01;91.52
52469;BME280;38381;53.688;10.776;2022-11-14T06:41:37;101607.53;;;6.09;91.18
52469;BME280;38381;53.688;10.776;2022-11-14T06:46:37;101622.44;;;5.95;91.22
52469;BME280;38381;53.688;10.776;2022-11-14T06:51:38;101628.13;;;5.88;92.14
52469;BME280;38381;53.688;10.776;2022-11-14T06:56:38;101629.41;;;5.98;92.00
52469;BME280;38381;53.688;10.776;2022-11-14T07:01:39;101623.66;;;5.84;92.63
52469;BME280;38381;53.688;10.776;2022-11-14T07:06:39;101619.09;;;5.98;91.90
52469;BME280;38381;53.688;10.776;2022-11-14T07:11:40;101617.34;;;5.76;92.45
52469;BME280;38381;53.688;10.776;2022-11-14T07:16:40;101605.56;;;5.60;92.71
52469;BME280;38381;53.688;10.776;2022-11-14T07:21:40;101621.97;;;5.63;92.89
52469;BME280;38381;53.688;10.776;2022-11-14T07:26:41;101622.75;;;5.61;93.84
52469;BME280;38381;53.688;10.776;2022-11-14T07:31:41;101625.00;;;5.74;92.76
52469;BME280;38381;53.688;10.776;2022-11-14T07:36:42;101624.06;;;5.72;92.82
52469;BME280;38381;53.688;10.776;2022-11-14T07:41:42;101621.75;;;5.78;93.08
52469;BME280;38381;53.688;10.776;2022-11-14T07:46:43;101620.47;;;5.90;92.29
52469;BME280;38381;53.688;10.776;2022-11-14T07:51:43;101623.78;;;5.87;92.06
52469;BME280;38381;53.688;10.776;2022-11-14T07:56:43;101612.63;;;5.87;92.34
52469;BME280;38381;53.688;10.776;2022-11-14T08:01:44;101603.03;;;5.82;92.23
52469;BME280;38381;53.688;10.776;2022-11-14T08:06:44;101600.63;;;5.87;92.38
52469;BME280;38381;53.688;10.776;2022-11-14T08:11:45;101595.34;;;5.84;92.04
52469;BME280;38381;53.688;10.776;2022-11-14T08:16:49;101604.03;;;5.65;93.68
52469;BME280;38381;53.688;10.776;2022-11-14T08:21:49;101599.56;;;5.82;92.77
52469;BME280;38381;53.688;10.776;2022-11-14T08:26:50;101591.44;;;5.94;92.77
52469;BME280;38381;53.688;10.776;2022-11-14T08:31:50;101597.19;;;5.87;92.72
52469;BME280;38381;53.688;10.776;2022-11-14T08:36:50;101585.06;;;6.05;91.71
52469;BME280;38381;53.688;10.776;2022-11-14T08:41:51;101591.09;;;5.84;92.14
52469;BME280;38381;53.688;10.776;2022-11-14T08:46:51;101602.25;;;5.85;93.29
52469;BME280;38381;53.688;10.776;2022-11-14T08:51:52;101595.81;;;5.95;92.98
52469;BME280;38381;53.688;10.776;2022-11-14T08:56:52;101595.53;;;6.10;92.66
52469;BME280;38381;53.688;10.776;2022-11-14T09:01:53;101600.50;;;6.05;92.47
52469;BME280;38381;53.688;10.776;2022-11-14T09:06:53;101586.19;;;5.91;93.06
52469;BME280;38381;53.688;10.776;2022-11-14T09:11:53;101571.97;;;6.00;92.75
52469;BME280;38381;53.688;10.776;2022-11-14T09:16:54;101574.38;;;6.18;92.95
52469;BME280;38381;53.688;10.776;2022-11-14T09:21:54;101568.84;;;6.08;92.56
52469;BME280;38381;53.688;10.776;2022-11-14T09:26:55;101568.03;;;6.33;92.19
52469;BME280;38381;53.688;10.776;2022-11-14T09:31:55;101564.16;;;6.20;92.15
52469;BME280;38381;53.688;10.776;2022-11-14T09:36:56;101562.19;;;6.37;91.83
52469;BME280;38381;53.688;10.776;2022-11-14T09:42:21;101551.44;;;6.49;90.92
52469;BME280;38381;53.688;10.776;2022-11-14T09:47:29;101551.44;;;6.49;90.80
52469;BME280;38381;53.688;10.776;2022-11-14T09:52:37;101539.72;;;6.57;90.74
52469;BME280;38381;53.688;10.776;2022-11-14T09:57:40;101532.34;;;6.68;90.40
52469;BME280;38381;53.688;10.776;2022-11-14T10:13:19;101526.25;;;7.17;89.45
52469;BME280;38381;53.688;10.776;2022-11-14T10:24:13;101507.00;;;7.05;89.22
52469;BME280;38381;53.688;10.776;2022-11-14T10:29:39;101507.78;;;7.30;87.69
52469;BME280;38381;53.688;10.776;2022-11-14T10:34:49;101493.31;;;7.35;87.74
52469;BME280;38381;53.688;10.776;2022-11-14T10:39:59;101485.75;;;7.41;87.43
52469;BME280;38381;53.688;10.776;2022-11-14T10:45:19;101475.97;;;7.31;87.43
52469;BME280;38381;53.688;10.776;2022-11-14T10:50:56;101463.00;;;7.57;87.04
52469;BME280;38381;53.688;10.776;2022-11-14T10:55:57;101449.28;;;7.88;86.12
52469;BME280;38381;53.688;10.776;2022-11-14T11:01:34;101437.28;;;8.20;84.98
52469;BME280;38381;53.688;10.776;2022-11-14T11:06:35;101428.16;;;8.35;83.64
52469;BME280;38381;53.688;10.776;2022-11-14T11:11:38;101422.91;;;8.32;83.84
52469;BME280;38381;53.688;10.776;2022-11-14T11:16:39;101422.25;;;8.39;82.51
52469;BME280;38381;53.688;10.776;2022-11-14T11:21:50;101407.09;;;8.51;82.91
52469;BME280;38381;53.688;10.776;2022-11-14T11:27:12;101401.56;;;8.72;81.82
52469;BME280;38381;53.688;10.776;2022-11-14T11:32:23;101398.88;;;8.68;82.52
52469;BME280;38381;53.688;10.776;2022-11-14T11:37:38;101385.47;;;8.84;81.55
52469;BME280;38381;53.688;10.776;2022-11-14T11:48:16;101379.41;;;8.83;81.14
52469;BME280;38381;53.688;10.776;2022-11-14T11:53:23;101376.47;;;9.04;80.83
52469;BME280;38381;53.688;10.776;2022-11-14T11:58:43;101349.41;;;9.30;79.02
52469;BME280;38381;53.688;10.776;2022-11-14T12:03:49;101337.41;;;9.35;78.18
52469;BME280;38381;53.688;10.776;2022-11-14T12:09:14;101333.81;;;9.28;78.42
52469;BME280;38381;53.688;10.776;2022-11-14T12:25:21;101325.44;;;9.40;78.03
52469;BME280;38381;53.688;10.776;2022-11-14T12:30:25;101336.91;;;9.53;78.01
52469;BME280;38381;53.688;10.776;2022-11-14T12:35:35;101339.69;;;9.62;77.85
52469;BME280;38381;53.688;10.776;2022-11-14T12:40:40;101336.34;;;9.67;76.84
52469;BME280;38381;53.688;10.776;2022-11-14T12:50:52;101345.03;;;9.27;78.27
52469;BME280;38381;53.688;10.776;2022-11-14T12:55:56;101341.13;;;9.48;77.77
52469;BME280;38381;53.688;10.776;2022-11-14T13:11:32;101333.00;;;9.29;79.12
52469;BME280;38381;53.688;10.776;2022-11-14T13:17:08;101316.81;;;9.39;78.73
52469;BME280;38381;53.688;10.776;2022-11-14T13:22:40;101316.44;;;9.65;77.49
52469;BME280;38381;53.688;10.776;2022-11-14T13:27:41;101314.03;;;9.30;78.72
52469;BME280;38381;53.688;10.776;2022-11-14T13:43:21;101305.38;;;9.30;78.64
52469;BME280;38381;53.688;10.776;2022-11-14T13:53:47;101280.56;;;9.39;78.08
52469;BME280;38381;53.688;10.776;2022-11-14T14:20:14;101279.56;;;9.33;79.11
52469;BME280;38381;53.688;10.776;2022-11-14T14:30:31;101282.84;;;9.24;79.36
52469;BME280;38381;53.688;10.776;2022-11-14T14:35:33;101266.13;;;9.08;79.98
52469;BME280;38381;53.688;10.776;2022-11-14T14:40:36;101270.31;;;9.01;80.48
52469;BME280;38381;53.688;10.776;2022-11-14T14:45:47;101272.44;;;8.80;81.08
52469;BME280;38381;53.688;10.776;2022-11-14T14:50:55;101270.63;;;8.76;81.61
52469;BME280;38381;53.688;10.776;2022-11-14T14:56:15;101277.34;;;8.68;81.71
52469;BME280;38381;53.688;10.776;2022-11-14T15:01:19;101264.41;;;8.69;81.67
52469;BME280;38381;53.688;10.776;2022-11-14T15:06:31;101263.59;;;8.70;81.68
52469;BME280;38381;53.688;10.776;2022-11-14T15:11:32;101256.63;;;8.66;82.44
52469;BME280;38381;53.688;10.776;2022-11-14T15:16:33;101258.88;;;8.52;82.72
52469;BME280;38381;53.688;10.776;2022-11-14T15:21:33;101249.41;;;8.53;82.36
52469;BME280;38381;53.688;10.776;2022-11-14T15:26:34;101243.38;;;8.52;82.17
52469;BME280;38381;53.688;10.776;2022-11-14T15:31:35;101246.66;;;8.45;82.23
52469;BME280;38381;53.688;10.776;2022-11-14T15:36:36;101248.19;;;8.38;82.68
52469;BME280;38381;53.688;10.776;2022-11-14T15:47:24;101243.81;;;7.99;84.24
52469;BME280;38381;53.688;10.776;2022-11-14T15:52:29;101240.34;;;7.99;84.27
52469;BME280;38381;53.688;10.776;2022-11-14T15:57:37;101233.22;;;7.89;84.48
52469;BME280;38381;53.688;10.776;2022-11-14T16:02:51;101243.41;;;7.82;84.83
52469;BME280;38381;53.688;10.776;2022-11-14T16:07:54;101237.25;;;7.77;85.00
52469;BME280;38381;53.688;10.776;2022-11-14T16:12:54;101228.38;;;7.68;86.21
52469;BME280;38381;53.688;10.776;2022-11-14T16:17:55;101228.50;;;7.72;85.83
52469;BME280;38381;53.688;10.776;2022-11-14T16:22:56;101226.31;;;7.54;86.96
52469;BME280;38381;53.688;10.776;2022-11-14T16:27:56;101222.06;;;7.56;87.08
52469;BME280;38381;53.688;10.776;2022-11-14T16:32:57;101219.25;;;7.47;87.33
52469;BME280;38381;53.688;10.776;2022-11-14T16:37:57;101218.75;;;7.29;88.15
52469;BME280;38381;53.688;10.776;2022-11-14T16:42:59;101218.66;;;7.24;88.10
52469;BME280;38381;53.688;10.776;2022-11-14T16:47:59;101210.84;;;7.22;88.15
52469;BME280;38381;53.688;10.776;2022-11-14T16:52:59;101201.88;;;7.08;89.19
52469;BME280;38381;53.688;10.776;2022-11-14T16:58:00;101202.50;;;7.01;89.96
52469;BME280;38381;53.688;10.776;2022-11-14T17:03:00;101193.84;;;6.99;90.34
52469;BME280;38381;53.688;10.776;2022-11-14T17:08:01;101199.94;;;7.01;90.34
52469;BME280;38381;53.688;10.776;2022-11-14T17:13:01;101198.31;;;7.04;89.37
52469;BME280;38381;53.688;10.776;2022-11-14T17:18:03;101194.66;;;6.96;89.77
52469;BME280;38381;53.688;10.776;2022-11-14T17:23:03;101196.25;;;6.93;89.50
52469;BME280;38381;53.688;10.776;2022-11-14T17:28:04;101187.75;;;6.95;89.92
52469;BME280;38381;53.688;10.776;2022-11-14T17:33:04;101181.72;;;6.95;88.62
52469;BME280;38381;53.688;10.776;2022-11-14T17:38:04;101187.38;;;6.81;90.23
52469;BME280;38381;53.688;10.776;2022-11-14T17:43:05;101174.19;;;6.72;90.79
52469;BME280;38381;53.688;10.776;2022-11-14T17:48:05;101187.31;;;6.80;90.92
52469;BME280;38381;53.688;10.776;2022-11-14T17:53:06;101183.63;;;6.72;91.20
52469;BME280;38381;53.688;10.776;2022-11-14T17:58:06;101186.28;;;6.73;91.64
52469;BME280;38381;53.688;10.776;2022-11-14T18:03:06;101180.16;;;6.70;91.54
52469;BME280;38381;53.688;10.776;2022-11-14T18:08:07;101178.47;;;6.72;92.71
52469;BME280;38381;53.688;10.776;2022-11-14T18:13:08;101172.69;;;6.79;91.67
52469;BME280;38381;53.688;10.776;2022-11-14T18:18:08;101176.03;;;6.76;92.12
52469;BME280;38381;53.688;10.776;2022-11-14T18:23:09;101174.94;;;6.98;90.63
52469;BME280;38381;53.688;10.776;2022-11-14T18:28:09;101163.53;;;6.90;90.36
52469;BME280;38381;53.688;10.776;2022-11-14T18:33:10;101157.13;;;6.76;92.09
52469;BME280;38381;53.688;10.776;2022-11-14T18:38:10;101150.47;;;6.84;91.73
52469;BME280;38381;53.688;10.776;2022-11-14T18:43:11;101150.44;;;6.82;91.41
52469;BME280;38381;53.688;10.776;2022-11-14T18:48:11;101150.44;;;6.82;91.32
52469;BME280;38381;53.688;10.776;2022-11-14T18:53:12;101132.97;;;6.72;91.66
52469;BME280;38381;53.688;10.776;2022-11-14T18:58:12;101127.94;;;6.77;92.25
52469;BME280;38381;53.688;10.776;2022-11-14T19:03:13;101116.16;;;6.87;90.85
52469;BME280;38381;53.688;10.776;2022-11-14T19:08:18;101108.41;;;6.85;91.02
52469;BME280;38381;53.688;10.776;2022-11-14T19:13:22;101105.09;;;6.89;90.88
52469;BME280;38381;53.688;10.776;2022-11-14T19:18:23;101105.00;;;6.86;90.92
52469;BME280;38381;53.688;10.776;2022-11-14T19:23:24;101097.53;;;6.97;90.48
52469;BME280;38381;53.688;10.776;2022-11-14T19:28:25;101097.47;;;6.94;89.34
52469;BME280;38381;53.688;10.776;2022-11-14T19:33:26;101097.88;;;6.77;90.67
52469;BME280;38381;53.688;10.776;2022-11-14T19:38:26;101083.38;;;6.81;90.14
52469;BME280;38381;53.688;10.776;2022-11-14T19:43:27;101088.31;;;6.73;90.42
52469;BME280;38381;53.688;10.776;2022-11-14T19:48:28;101084.63;;;6.33;91.95
52469;BME280;38381;53.688;10.776;2022-11-14T19:53:28;101083.66;;;6.30;93.19
52469;BME280;38381;53.688;10.776;2022-11-14T19:58:29;101082.81;;;6.31;91.75
52469;BME280;38381;53.688;10.776;2022-11-14T20:03:30;101088.53;;;6.20;92.48
52469;BME280;38381;53.688;10.776;2022-11-14T20:08:31;101100.63;;;6.23;92.19
52469;BME280;38381;53.688;10.776;2022-11-14T20:13:33;101093.06;;;6.28;91.88
52469;BME280;38381;53.688;10.776;2022-11-14T20:18:34;101095.22;;;6.14;93.60
52469;BME280;38381;53.688;10.776;2022-11-14T20:23:35;101081.84;;;6.27;92.97
52469;BME280;38381;53.688;10.776;2022-11-14T20:28:36;101073.50;;;6.34;92.09
52469;BME280;38381;53.688;10.776;2022-11-14T20:33:39;101086.94;;;6.24;91.92
52469;BME280;38381;53.688;10.776;2022-11-14T20:38:40;101063.88;;;6.29;91.45
52469;BME280;38381;53.688;10.776;2022-11-14T20:43:41;101069.09;;;6.30;91.42
52469;BME280;38381;53.688;10.776;2022-11-14T20:48:43;101062.16;;;6.29;90.14
52469;BME280;38381;53.688;10.776;2022-11-14T20:53:44;101051.50;;;6.15;90.78
52469;BME280;38381;53.688;10.776;2022-11-14T20:58:46;101038.38;;;6.08;91.29
52469;BME280;38381;53.688;10.776;2022-11-14T21:03:47;101029.78;;;5.78;95.21
52469;BME280;38381;53.688;10.776;2022-11-14T21:08:48;101028.19;;;5.83;95.29
52469;BME280;38381;53.688;10.776;2022-11-14T21:13:48;101019.84;;;5.91;94.93
52469;BME280;38381;53.688;10.776;2022-11-14T21:18:58;101018.41;;;5.99;94.63
52469;BME280;38381;53.688;10.776;2022-11-14T21:23:59;101010.41;;;5.91;95.10
52469;BME280;38381;53.688;10.776;2022-11-14T21:29:03;101013.16;;;5.96;95.35
52469;BME280;38381;53.688;10.776;2022-11-14T21:34:14;100996.84;;;5.95;94.83
52469;BME280;38381;53.688;10.776;2022-11-14T21:39:16;100995.13;;;5.96;94.38
52469;BME280;38381;53.688;10.776;2022-11-14T21:44:17;100992.72;;;6.02;94.59
52469;BME280;38381;53.688;10.776;2022-11-14T21:49:18;100976.91;;;5.90;95.09
52469;BME280;38381;53.688;10.776;2022-11-14T21:54:18;100970.97;;;5.92;95.36
52469;BME280;38381;53.688;10.776;2022-11-14T21:59:18;100971.75;;;5.90;95.46
52469;BME280;38381;53.688;10.776;2022-11-14T22:04:23;100970.22;;;5.95;94.89
52469;BME280;38381;53.688;10.776;2022-11-14T22:09:25;100962.63;;;5.99;95.05
52469;BME280;38381;53.688;10.776;2022-11-14T22:14:27;100953.84;;;5.94;95.90
52469;BME280;38381;53.688;10.776;2022-11-14T22:19:28;100955.66;;;5.95;95.33
52469;BME280;38381;53.688;10.776;2022-11-14T22:24:28;100957.91;;;6.15;94.38
52469;BME280;38381;53.688;10.776;2022-11-14T22:29:29;100957.56;;;6.02;95.00
52469;BME280;38381;53.688;10.776;2022-11-14T22:34:29;100951.50;;;6.00;94.78
52469;BME280;38381;53.688;10.776;2022-11-14T22:39:29;100952.63;;;6.10;94.25
52469;BME280;38381;53.688;10.776;2022-11-14T22:44:30;100957.72;;;6.09;93.89
52469;BME280;38381;53.688;10.776;2022-11-14T22:49:30;100952.50;;;6.06;93.59
52469;BME280;38381;53.688;10.776;2022-11-14T22:54:31;100931.91;;;6.06;94.59
52469;BME280;38381;53.688;10.776;2022-11-14T22:59:31;100930.81;;;5.97;93.94
52469;BME280;38381;53.688;10.776;2022-11-14T23:04:31;100924.63;;;5.92;94.39
52469;BME280;38381;53.688;10.776;2022-11-14T23:09:32;100921.97;;;5.89;94.53
52469;BME280;38381;53.688;10.776;2022-11-14T23:14:32;100917.47;;;5.82;94.50
52469;BME280;38381;53.688;10.776;2022-11-14T23:19:33;100921.13;;;5.89;94.01
52469;BME280;38381;53.688;10.776;2022-11-14T23:24:33;100912.38;;;5.83;94.82
52469;BME280;38381;53.688;10.776;2022-11-14T23:29:33;100913.97;;;5.78;94.68
52469;BME280;38381;53.688;10.776;2022-11-14T23:34:34;100915.63;;;5.76;94.43
52469;BME280;38381;53.688;10.776;2022-11-14T23:39:34;100901.78;;;5.73;94.98
52469;BME280;38381;53.688;10.776;2022-11-14T23:44:35;100892.94;;;5.63;94.80
52469;BME280;38381;53.688;10.776;2022-11-14T23:49:35;100887.78;;;5.63;95.33
52469;BME280;38381;53.688;10.776;2022-11-14T23:54:35;100896.97;;;5.55;95.66
52469;BME280;38381;53.688;10.776;2022-11-14T23:59:36;100895.56;;;5.64;95.13
